createdAt,value
2023-08-19T00:01:13.563Z,27.47
2023-08-19T00:03:40.265Z,27.47
2023-08-19T00:06:09.892Z,27.46
2023-08-19T00:08:37.190Z,27.45
2023-08-19T00:11:04.924Z,27.43
2023-08-19T00:13:31.784Z,27.41
2023-08-19T00:15:58.680Z,27.41
2023-08-19T00:18:25.572Z,27.38
2023-08-19T00:20:52.619Z,27.37
2023-08-19T00:23:19.372Z,27.35
2023-08-19T00:25:45.998Z,27.34
2023-08-19T00:28:12.684Z,27.33
2023-08-19T00:30:39.338Z,27.31
2023-08-19T00:33:05.979Z,27.29
2023-08-19T00:35:33.781Z,27.26
2023-08-19T00:38:00.914Z,27.25
2023-08-19T00:40:27.600Z,27.22
2023-08-19T00:42:54.317Z,27.21
2023-08-19T00:45:20.972Z,27.20
2023-08-19T00:47:47.814Z,27.20
2023-08-19T00:50:15.921Z,27.20
2023-08-19T00:52:44.529Z,27.18
2023-08-19T00:55:11.390Z,27.18
2023-08-19T00:57:38.434Z,27.17
2023-08-19T01:00:06.355Z,27.16
2023-08-19T01:02:33.138Z,27.14
2023-08-19T01:04:59.987Z,27.14
2023-08-19T01:07:39.608Z,27.23
2023-08-19T01:10:28.182Z,27.17
2023-08-19T01:13:21.440Z,27.32
2023-08-19T01:15:56.798Z,27.20
2023-08-19T01:18:24.937Z,27.09
2023-08-19T01:20:54.268Z,27.05
2023-08-19T01:23:31.619Z,27.13
2023-08-19T01:25:58.719Z,26.99
2023-08-19T01:28:25.442Z,26.96
2023-08-19T01:30:52.193Z,26.90
2023-08-19T01:33:19.689Z,26.86
2023-08-19T01:36:14.988Z,27.05
2023-08-19T01:38:52.230Z,26.94
2023-08-19T01:41:23.660Z,26.85
2023-08-19T01:43:51.007Z,26.81
2023-08-19T01:46:18.847Z,26.80
2023-08-19T01:48:45.614Z,26.81
2023-08-19T01:51:12.318Z,26.80
2023-08-19T01:53:38.930Z,26.79
2023-08-19T01:56:05.878Z,26.78
2023-08-19T01:58:32.593Z,26.76
2023-08-19T02:00:59.414Z,26.73
2023-08-19T02:03:26.074Z,26.73
2023-08-19T02:05:52.899Z,26.69
2023-08-19T02:08:19.608Z,26.69
2023-08-19T02:10:46.320Z,26.67
2023-08-19T02:13:12.957Z,26.66
2023-08-19T02:15:39.816Z,26.66
2023-08-19T02:18:06.722Z,26.64
2023-08-19T02:20:33.904Z,26.63
2023-08-19T02:23:00.823Z,26.62
2023-08-19T02:25:27.787Z,26.61
2023-08-19T02:27:54.601Z,26.60
2023-08-19T02:30:21.365Z,26.57
2023-08-19T02:32:48.054Z,26.55
2023-08-19T02:35:15.137Z,26.52
2023-08-19T02:37:41.748Z,26.50
2023-08-19T02:40:08.920Z,26.47
2023-08-19T02:42:35.618Z,26.44
2023-08-19T02:45:02.352Z,26.43
2023-08-19T02:47:29.064Z,26.41
2023-08-19T02:49:55.984Z,26.39
2023-08-19T02:52:22.671Z,26.35
2023-08-19T02:54:49.384Z,26.35
2023-08-19T02:57:16.029Z,26.32
2023-08-19T02:59:42.690Z,26.31
2023-08-19T03:02:09.391Z,26.30
2023-08-19T03:04:36.017Z,26.31
2023-08-19T03:07:02.692Z,26.29
2023-08-19T03:09:29.411Z,26.30
2023-08-19T03:11:56.062Z,26.31
2023-08-19T03:14:22.782Z,26.30
2023-08-19T03:16:51.276Z,26.30
2023-08-19T03:19:18.049Z,26.30
2023-08-19T03:21:44.786Z,26.30
2023-08-19T03:24:11.479Z,26.26
2023-08-19T03:26:38.126Z,26.24
2023-08-19T03:29:04.874Z,26.20
2023-08-19T03:31:31.629Z,26.16
2023-08-19T03:33:58.245Z,26.14
2023-08-19T03:36:24.918Z,26.11
2023-08-19T03:38:51.592Z,26.10
2023-08-19T03:41:18.258Z,26.10
2023-08-19T03:43:44.842Z,26.09
2023-08-19T03:46:11.588Z,26.08
2023-08-19T03:48:38.524Z,26.08
2023-08-19T03:51:05.114Z,26.09
2023-08-19T03:53:31.770Z,26.07
2023-08-19T03:55:58.397Z,26.09
2023-08-19T03:58:24.983Z,26.09
2023-08-19T04:00:51.725Z,26.08
2023-08-19T04:03:18.400Z,26.07
2023-08-19T04:05:45.042Z,26.08
2023-08-19T04:08:11.676Z,26.08
2023-08-19T04:10:38.503Z,26.06
2023-08-19T04:13:05.372Z,26.06
2023-08-19T04:15:33.250Z,26.05
2023-08-19T04:17:59.950Z,26.04
2023-08-19T04:20:26.662Z,26.03
2023-08-19T04:22:53.381Z,26.02
2023-08-19T04:25:20.099Z,26.00
2023-08-19T04:27:46.775Z,25.99
2023-08-19T04:30:14.288Z,25.98
2023-08-19T04:32:41.051Z,25.98
2023-08-19T04:35:08.283Z,25.97
2023-08-19T04:37:35.120Z,25.96
2023-08-19T04:40:02.067Z,25.96
2023-08-19T04:42:28.685Z,25.97
2023-08-19T04:44:55.355Z,25.96
2023-08-19T04:47:22.002Z,25.95
2023-08-19T04:49:48.683Z,25.95
2023-08-19T04:52:15.336Z,25.93
2023-08-19T04:54:41.981Z,25.92
2023-08-19T04:57:08.618Z,25.89
2023-08-19T04:59:35.282Z,25.89
2023-08-19T05:02:02.721Z,25.89
2023-08-19T05:04:29.491Z,25.87
2023-08-19T05:06:56.112Z,25.88
2023-08-19T05:09:22.954Z,25.88
2023-08-19T05:11:49.641Z,25.88
2023-08-19T05:14:16.351Z,25.89
2023-08-19T05:16:42.960Z,25.91
2023-08-19T05:19:22.056Z,26.02
2023-08-19T05:21:50.037Z,25.93
2023-08-19T05:24:19.778Z,25.93
2023-08-19T05:26:46.591Z,25.93
2023-08-19T05:29:14.382Z,25.93
2023-08-19T05:31:41.904Z,25.94
2023-08-19T05:34:09.503Z,25.93
2023-08-19T05:36:36.354Z,25.93
2023-08-19T05:39:03.586Z,25.93
2023-08-19T05:41:30.333Z,25.94
2023-08-19T05:43:56.920Z,25.95
2023-08-19T05:46:23.736Z,25.96
2023-08-19T05:48:50.521Z,25.95
2023-08-19T05:51:17.400Z,25.96
2023-08-19T05:53:43.988Z,25.96
2023-08-19T05:56:10.670Z,25.96
2023-08-19T05:58:37.320Z,25.96
2023-08-19T06:01:04.819Z,25.97
2023-08-19T06:03:31.672Z,25.99
2023-08-19T06:05:58.464Z,26.00
2023-08-19T06:08:25.112Z,26.01
2023-08-19T06:11:07.805Z,26.13
2023-08-19T06:13:35.409Z,26.06
2023-08-19T06:16:02.715Z,26.08
2023-08-19T06:18:29.965Z,26.13
2023-08-19T06:20:57.943Z,26.17
2023-08-19T06:23:24.876Z,26.22
2023-08-19T06:25:53.674Z,26.27
2023-08-19T06:28:22.734Z,26.31
2023-08-19T06:30:50.606Z,26.33
2023-08-19T06:33:18.080Z,26.38
2023-08-19T06:35:51.191Z,26.45
2023-08-19T06:38:22.274Z,26.51
2023-08-19T06:41:01.540Z,26.57
2023-08-19T06:43:28.644Z,26.56
2023-08-19T06:45:56.418Z,26.59
2023-08-19T06:48:26.556Z,26.68
2023-08-19T06:50:54.665Z,26.70
2023-08-19T06:53:25.324Z,26.78
2023-08-19T06:56:01.997Z,26.91
2023-08-19T06:58:30.154Z,27.24
2023-08-19T07:01:04.579Z,27.08
2023-08-19T07:03:34.554Z,27.07
2023-08-19T07:06:03.369Z,27.12
2023-08-19T07:08:31.956Z,27.19
2023-08-19T07:11:00.642Z,27.28
2023-08-19T07:13:28.205Z,27.35
2023-08-19T07:16:01.949Z,27.48
2023-08-19T07:18:31.481Z,27.55
2023-08-19T07:21:00.394Z,27.67
2023-08-19T07:23:27.446Z,27.76
2023-08-19T07:25:54.464Z,27.83
2023-08-19T07:28:24.196Z,27.94
2023-08-19T07:30:52.173Z,27.98
2023-08-19T07:33:19.117Z,28.07
2023-08-19T07:35:46.510Z,28.16
2023-08-19T07:38:15.752Z,28.28
2023-08-19T07:40:42.639Z,28.39
2023-08-19T07:43:09.248Z,28.50
2023-08-19T07:45:36.495Z,28.63
2023-08-19T07:48:03.541Z,28.75
2023-08-19T07:50:30.647Z,28.90
2023-08-19T07:52:57.344Z,29.02
2023-08-19T07:55:23.969Z,29.16
2023-08-19T07:57:50.710Z,29.29
2023-08-19T08:00:17.454Z,29.44
2023-08-19T08:02:44.064Z,29.58
2023-08-19T08:05:10.971Z,29.74
2023-08-19T08:07:38.185Z,29.89
2023-08-19T08:10:05.296Z,30.05
2023-08-19T08:12:33.115Z,30.19
2023-08-19T08:15:00.297Z,30.33
2023-08-19T08:17:27.309Z,30.46
2023-08-19T08:19:57.215Z,30.59
2023-08-19T08:22:24.643Z,30.73
2023-08-19T08:24:51.327Z,30.86
2023-08-19T08:27:18.144Z,30.98
2023-08-19T08:29:44.840Z,31.10
2023-08-19T08:32:11.535Z,31.21
2023-08-19T08:34:38.322Z,31.33
2023-08-19T08:37:04.999Z,31.44
2023-08-19T08:39:31.753Z,31.54
2023-08-19T08:41:59.597Z,31.65
2023-08-19T08:44:27.659Z,31.77
2023-08-19T08:46:57.089Z,31.91
2023-08-19T08:49:25.967Z,32.05
2023-08-19T08:51:52.919Z,32.20
2023-08-19T08:54:22.747Z,32.37
2023-08-19T08:56:50.267Z,32.52
2023-08-19T08:59:17.862Z,32.67
2023-08-19T09:01:47.453Z,32.81
2023-08-19T09:04:16.666Z,32.93
2023-08-19T09:06:47.385Z,33.04
2023-08-19T09:09:14.501Z,33.16
2023-08-19T09:11:47.658Z,33.27
2023-08-19T09:14:29.506Z,33.40
2023-08-19T09:16:56.164Z,33.48
2023-08-19T09:19:22.887Z,33.57
2023-08-19T09:21:49.532Z,33.68
2023-08-19T09:24:17.564Z,33.75
2023-08-19T09:26:46.404Z,33.84
2023-08-19T09:29:13.299Z,33.89
2023-08-19T09:31:40.998Z,33.94
2023-08-19T09:34:08.024Z,33.97
2023-08-19T09:36:34.763Z,34.03
2023-08-19T09:39:01.430Z,34.10
2023-08-19T09:41:29.689Z,34.16
2023-08-19T09:43:58.236Z,34.24
2023-08-19T09:46:33.361Z,34.38
2023-08-19T09:49:00.487Z,34.45
2023-08-19T09:51:29.870Z,34.55
2023-08-19T09:53:57.450Z,34.66
2023-08-19T09:56:26.736Z,34.76
